Bryant, IN (47326)

02:40 PM EST del 01 Febbraio 2015 (GMT -0500)
K9UO | Change Station
CLOSE
Current Station
Stazione meteo personale
Location: Portland, IN
Altitudine: 940 ft
Stazioni meteo nelle vicinanze
Avvisi attivi: Winter Storm Warning

Alt. 940 ft 40.40 °N, 84.98 °W | Updated 3 seconds ago

Neve
Neve
33.4 °F
Sembra 33 °F
N
0.0
Vento Variabile Vento da ESE
Gusts 0.0 mph

Oggi
Massima -- | Minima -- °F
--% Possibilità di precip.
Ieri
Massima -- | Minima -- °F
Precip. -- in
7:49 AM 5:57 PM
Gobba a ponente, 96% visible
Pressione 29.69 in
Visibilità 1.0 miglia
Nuvole Coperto 500 ft
Raffreddamento del vento 33 °F
Punto di rugiada 32 °F
Umidità 96%
Piovosità 0.18 in
Spessore del manto nevoso Non disponibile.
Raggi UV 1 fuori da 12
Polline .10 fuori da 12
Qualità dell'aria Non disponibile.
Flu Activity Non disponibile.
SPECI KMIE 011923Z 12007KT 1SM -SN BR OVC005 01/00 A2969 RMK AO2 CIG 003V010 P0002 T00060000

More Conditions Fewer Conditions

Pressione 29.69 in
Visibilità 1.0 miglia
Nuvole Coperto 500 ft
Raffreddamento del vento 33 °F
Punto di rugiada 32 °F
Umidità 96%
Piovosità 0.18 in
Spessore del manto nevoso Non disponibile.
Raggi UV 1 fuori da 12
Polline .10 fuori da 12
Qualità dell'aria Non disponibile.
Flu Activity Non disponibile.
SPECI KMIE 011923Z 12007KT 1SM -SN BR OVC005 01/00 A2969 RMK AO2 CIG 003V010 P0002 T00060000

More Conditions Fewer Conditions

10-Day Weather Forecast

Almanac

Astronomia

Feb. 01, 2015 Alba Tramonto
Ora attuale
Crepuscolo civile
Crepuscolo nautico
Crepuscolo astronomico
Luna
Estensione della luce visibile
Lunghezza del giorno
Tomorrow will be .
, % of the Moon is Illuminated

Gli estremi di oggi

State Highs State Lows

Community

WunderPhotos

Upload Photos

1,792,467 foto caricate!

WunderBlogs® & News

Nearby

Qualità dell'aria

  Qualità dell'aria Indice AQ Inquinante
Not available.

Profondità neve

Stazione Profondità Altitudine

Attività sismica

Città  Distanza Mag. Data & Ora
Minimo Magnitudo Mostrato è 2.5.

Temperature delle acque costiere

Località Temperatura

Stazioni meteo nelle vicinanze